Time;durP1;ratioP1;P1;durP2;ratioP2;P2;SDS_P1;SDS_P2;PMS_P1;PMS_P2;Temp;Humidity;BMP_temperature;BMP_pressure;BME280_temperature;BME280_humidity;BME280_pressure;Samples;Min_cycle;Max_cycle;Signal;HPM_P1;HPM_P2
2021/12/20 00:00:32;;;;;;;13.20;1.90;;;;;;;1.01;87.17;100330.56;104087;1307;22691;-71
2021/12/20 00:03:12;;;;;;;10.30;1.40;;;;;;;0.97;87.25;100337.20;104058;1307;25383;-70
2021/12/20 00:05:43;;;;;;;10.80;1.30;;;;;;;0.94;87.23;100328.99;104053;1311;22732;-71
2021/12/20 00:08:14;;;;;;;12.10;1.70;;;;;;;0.92;87.28;100321.55;104075;1306;22545;-69
2021/12/20 00:10:45;;;;;;;10.10;1.80;;;;;;;0.90;87.29;100327.63;104079;1307;22795;-69
2021/12/20 00:13:17;;;;;;;9.70;1.70;;;;;;;0.88;87.30;100336.83;104052;1307;24263;-69
2021/12/20 00:15:47;;;;;;;9.70;1.10;;;;;;;0.86;87.28;100328.61;104038;1306;22604;-69
2021/12/20 00:18:18;;;;;;;13.60;2.20;;;;;;;0.83;87.27;100324.02;104032;1307;22580;-69
2021/12/20 00:20:49;;;;;;;11.10;1.20;;;;;;;0.81;87.19;100322.85;104069;1311;23105;-70
2021/12/20 00:23:20;;;;;;;10.10;1.60;;;;;;;0.79;87.20;100326.04;104110;1311;24006;-70
2021/12/20 00:25:51;;;;;;;10.50;2.20;;;;;;;0.76;87.20;100330.15;104050;1307;22583;-70
2021/12/20 00:28:22;;;;;;;8.90;1.60;;;;;;;0.74;87.22;100335.28;104073;1306;22591;-70
2021/12/20 00:30:53;;;;;;;10.20;1.10;;;;;;;0.71;87.30;100341.89;104114;1305;22663;-70
2021/12/20 00:33:28;;;;;;;13.60;1.50;;;;;;;0.69;87.17;100344.67;104066;1307;22798;-71
2021/12/20 00:35:58;;;;;;;10.30;1.50;;;;;;;0.66;87.32;100351.07;104090;1313;22626;-69
2021/12/20 00:41:19;;;;;;;9.20;1.30;;;;;;;0.60;87.27;100345.40;103987;1306;22553;-70
2021/12/20 00:43:50;;;;;;;9.20;1.10;;;;;;;0.57;87.38;100342.53;104079;1307;22571;-70
2021/12/20 00:46:21;;;;;;;9.30;1.20;;;;;;;0.55;87.40;100342.71;104067;1307;25397;-70
2021/12/20 00:48:53;;;;;;;10.00;1.60;;;;;;;0.53;87.46;100347.90;104107;1307;22789;-70
2021/12/20 00:51:23;;;;;;;11.50;1.80;;;;;;;0.51;87.37;100357.83;104248;1306;22574;-70
2021/12/20 00:53:54;;;;;;;6.70;1.20;;;;;;;0.49;87.36;100358.00;104030;1313;22571;-69
2021/12/20 00:56:27;;;;;;;8.70;1.90;;;;;;;0.47;87.56;100370.03;104079;1309;25242;-70
2021/12/20 00:58:58;;;;;;;11.20;1.00;;;;;;;0.44;87.68;100369.04;104064;1306;24362;-70
2021/12/20 01:01:29;;;;;;;10.90;1.20;;;;;;;0.46;88.11;100365.02;104088;1307;22606;-73
2021/12/20 01:04:00;;;;;;;10.40;1.50;;;;;;;0.49;88.04;100364.67;104053;1306;24281;-71
2021/12/20 01:06:30;;;;;;;9.70;1.30;;;;;;;0.51;88.13;100365.11;104086;1306;22570;-71
2021/12/20 01:09:02;;;;;;;12.10;1.50;;;;;;;0.54;88.16;100357.71;104102;1310;25614;-70
2021/12/20 01:11:39;;;;;;;8.50;1.50;;;;;;;0.58;88.23;100366.70;104229;1310;22547;-70
2021/12/20 01:14:11;;;;;;;13.60;2.10;;;;;;;0.61;88.39;100379.77;104088;1307;22577;-70
2021/12/20 01:16:43;;;;;;;10.90;1.10;;;;;;;0.64;88.30;100376.91;104173;1307;23102;-70
2021/12/20 01:19:14;;;;;;;12.10;1.50;;;;;;;0.66;88.17;100369.11;103957;1306;22576;-70
2021/12/20 01:21:46;;;;;;;12.00;1.70;;;;;;;0.70;88.13;100361.77;104017;1306;25345;-70
2021/12/20 01:24:17;;;;;;;9.90;1.10;;;;;;;0.73;88.11;100370.45;104053;1306;22906;-70
2021/12/20 01:26:48;;;;;;;8.90;1.40;;;;;;;0.75;88.15;100369.09;104066;1307;23962;-68
2021/12/20 01:29:19;;;;;;;15.90;1.70;;;;;;;0.78;88.08;100374.10;103972;1307;23091;-69
2021/12/20 01:31:50;;;;;;;11.20;1.90;;;;;;;0.81;88.01;100379.48;103997;1307;23448;-70
2021/12/20 01:34:21;;;;;;;5.90;1.00;;;;;;;0.83;88.08;100376.08;104085;1307;22632;-71
2021/12/20 01:36:55;;;;;;;10.20;1.70;;;;;;;0.86;88.11;100376.76;104136;1310;24340;-70
2021/12/20 01:39:29;;;;;;;12.70;1.40;;;;;;;0.88;88.06;100377.27;104144;1307;22557;-69
2021/12/20 01:42:02;;;;;;;10.60;1.50;;;;;;;0.90;88.02;100378.98;104227;1306;23974;-71
2021/12/20 01:44:33;;;;;;;10.90;1.70;;;;;;;0.92;88.05;100387.60;104192;1307;23971;-71
2021/12/20 01:47:08;;;;;;;11.60;1.80;;;;;;;0.94;88.00;100390.02;104171;1312;26732;-69
2021/12/20 01:49:51;;;;;;;11.40;1.20;;;;;;;0.95;88.02;100384.66;104114;1307;24272;-70
2021/12/20 01:52:26;;;;;;;11.30;1.60;;;;;;;0.97;87.94;100383.69;104134;1306;25488;-71
2021/12/20 01:54:57;;;;;;;14.40;2.30;;;;;;;0.98;87.95;100386.11;104071;1306;25451;-69
2021/12/20 01:57:28;;;;;;;12.00;1.50;;;;;;;1.00;87.95;100389.63;104096;1308;22548;-70
2021/12/20 01:59:59;;;;;;;8.10;1.20;;;;;;;1.01;87.91;100387.73;104225;1313;22571;-71
2021/12/20 02:02:30;;;;;;;8.80;1.70;;;;;;;1.03;87.84;100395.80;104093;1307;22580;-70
2021/12/20 02:05:12;;;;;;;10.20;1.60;;;;;;;1.04;87.78;100394.45;104108;1307;25424;-70
2021/12/20 02:07:51;;;;;;;9.50;1.10;;;;;;;1.04;87.73;100394.45;104176;1307;24184;-70
2021/12/20 02:10:22;;;;;;;11.20;1.20;;;;;;;1.04;87.80;100396.09;104137;1306;22634;-70
2021/12/20 02:12:53;;;;;;;11.80;1.40;;;;;;;1.05;87.64;100400.34;104090;1310;25382;-70
2021/12/20 02:15:24;;;;;;;10.50;1.80;;;;;;;1.06;87.72;100405.97;104120;1309;22867;-70
2021/12/20 02:17:56;;;;;;;8.20;1.40;;;;;;;1.06;87.50;100408.55;104093;1307;24298;-69
2021/12/20 02:20:28;;;;;;;7.90;1.40;;;;;;;1.06;87.48;100403.52;104142;1310;23337;-70
2021/12/20 02:23:03;;;;;;;10.30;1.60;;;;;;;1.06;87.58;100396.86;104211;1307;25640;-70
2021/12/20 02:25:35;;;;;;;6.40;1.10;;;;;;;1.06;87.29;100403.29;103574;1306;777514;-70
2021/12/20 02:28:10;;;;;;;12.00;2.10;;;;;;;1.06;87.25;100409.11;104088;1306;23581;-69
2021/12/20 02:30:51;;;;;;;8.50;1.50;;;;;;;1.06;87.28;100413.42;104108;1307;22618;-70
2021/12/20 02:39:06;;;;;;;7.60;1.20;;;;;;;1.06;87.04;100406.83;103679;1319;25938;-70
2021/12/20 02:41:37;;;;;;;6.30;1.20;;;;;;;1.07;87.02;100408.31;103736;1316;24127;-69
2021/12/20 02:44:16;;;;;;;11.50;1.40;;;;;;;1.08;87.04;100409.80;103831;1309;25470;-70
2021/12/20 02:46:52;;;;;;;9.40;1.70;;;;;;;1.08;86.98;100410.64;103873;1309;25730;-70
2021/12/20 02:49:29;;;;;;;9.50;1.10;;;;;;;1.09;86.86;100413.87;103975;1309;22578;-70
2021/12/20 02:52:05;;;;;;;9.10;1.50;;;;;;;1.09;87.06;100416.93;103784;1316;26714;-70
2021/12/20 02:54:37;;;;;;;11.50;1.40;;;;;;;1.09;86.84;100418.27;103862;1310;24451;-70
2021/12/20 02:57:08;;;;;;;9.00;1.50;;;;;;;1.08;86.72;100420.39;103844;1317;22634;-69
2021/12/20 02:59:39;;;;;;;7.20;1.30;;;;;;;1.09;86.60;100417.94;103777;1314;24205;-69
2021/12/20 03:02:12;;;;;;;7.80;1.20;;;;;;;1.09;86.84;100412.13;103928;1310;25522;-70
2021/12/20 03:04:43;;;;;;;8.00;1.00;;;;;;;1.07;86.89;100411.85;103998;1314;22587;-70
2021/12/20 03:07:22;;;;;;;6.30;1.10;;;;;;;1.07;86.75;100407.85;103795;1310;25442;-71
2021/12/20 03:09:58;;;;;;;8.80;1.00;;;;;;;1.08;86.65;100403.91;103782;1317;22577;-69
2021/12/20 03:12:31;;;;;;;6.10;1.70;;;;;;;1.07;86.58;100401.02;103912;1310;22536;-69
2021/12/20 03:15:09;;;;;;;8.90;2.30;;;;;;;1.07;86.73;100402.59;104067;1310;22896;-70
2021/12/20 03:17:40;;;;;;;5.00;1.20;;;;;;;1.06;86.54;100394.56;104125;1310;22571;-69
2021/12/20 03:20:14;;;;;;;6.70;0.90;;;;;;;1.05;86.37;100388.86;104154;1307;23219;-70
2021/12/20 03:22:45;;;;;;;9.10;1.00;;;;;;;1.04;86.24;100395.94;104193;1310;22628;-69
2021/12/20 03:25:21;;;;;;;6.10;0.90;;;;;;;1.03;86.42;100394.77;104123;1307;22570;-70
2021/12/20 03:27:53;;;;;;;7.60;1.00;;;;;;;1.03;86.14;100396.19;104100;1307;22580;-71
2021/12/20 03:30:25;;;;;;;7.70;0.80;;;;;;;1.01;85.98;100397.94;104163;1307;22567;-69
2021/12/20 03:32:56;;;;;;;6.90;0.90;;;;;;;1.00;86.13;100399.14;104176;1310;24227;-70
2021/12/20 03:35:27;;;;;;;5.40;1.10;;;;;;;0.98;86.00;100403.02;104126;1307;22609;-71
2021/12/20 03:37:58;;;;;;;8.80;1.10;;;;;;;0.96;85.87;100403.10;104039;1307;26919;-70
2021/12/20 03:40:29;;;;;;;5.20;0.80;;;;;;;0.96;85.99;100403.02;104186;1310;25225;-69
2021/12/20 03:42:59;;;;;;;12.40;1.60;;;;;;;0.96;86.08;100405.07;104175;1306;25401;-70
2021/12/20 03:45:30;;;;;;;6.20;1.10;;;;;;;0.96;86.15;100408.13;104183;1310;22611;-70
2021/12/20 03:48:01;;;;;;;4.40;0.90;;;;;;;0.96;86.17;100403.34;104091;1311;25347;-70
2021/12/20 03:50:32;;;;;;;11.60;1.30;;;;;;;0.97;86.15;100399.88;104165;1310;22570;-70
2021/12/20 03:53:03;;;;;;;8.30;1.40;;;;;;;0.98;86.23;100405.44;104143;1307;25266;-69
2021/12/20 03:55:34;;;;;;;5.20;1.00;;;;;;;0.98;86.11;100402.05;104203;1312;22570;-71
2021/12/20 03:58:09;;;;;;;4.50;0.80;;;;;;;0.98;86.10;100403.00;104117;1306;24111;-70
2021/12/20 04:00:40;;;;;;;5.60;0.90;;;;;;;0.99;85.95;100405.11;104111;1310;22582;-71
2021/12/20 04:03:13;;;;;;;9.00;1.20;;;;;;;0.99;86.07;100407.86;104052;1310;22606;-70
2021/12/20 04:05:45;;;;;;;6.10;1.10;;;;;;;0.99;86.04;100415.80;104119;1311;25284;-69
2021/12/20 04:08:15;;;;;;;7.80;1.30;;;;;;;0.99;86.00;100420.74;104146;1310;22699;-70
2021/12/20 04:10:46;;;;;;;6.50;1.00;;;;;;;0.98;86.02;100427.34;104049;1306;22606;-71
2021/12/20 04:13:17;;;;;;;5.10;0.90;;;;;;;0.98;85.89;100431.42;104142;1310;24275;-71
2021/12/20 04:15:48;;;;;;;5.60;1.10;;;;;;;0.97;85.84;100421.23;104083;1310;25472;-71
2021/12/20 04:18:19;;;;;;;7.10;1.00;;;;;;;0.95;85.93;100417.09;104079;1310;22590;-69
2021/12/20 04:20:49;;;;;;;4.90;0.80;;;;;;;0.94;85.95;100422.05;104040;1311;22571;-71
2021/12/20 04:23:20;;;;;;;3.80;0.90;;;;;;;0.92;85.84;100419.48;104111;1307;22593;-70
2021/12/20 04:25:51;;;;;;;6.80;1.10;;;;;;;0.91;85.87;100418.45;104153;1311;25281;-70
2021/12/20 04:28:22;;;;;;;5.00;0.90;;;;;;;0.90;85.84;100424.45;104133;1310;24225;-70
2021/12/20 04:30:54;;;;;;;6.50;0.60;;;;;;;0.88;85.91;100421.57;104109;1310;24237;-70
2021/12/20 04:33:24;;;;;;;7.40;0.80;;;;;;;0.86;85.79;100418.21;104239;1307;22627;-69
2021/12/20 04:35:55;;;;;;;7.50;0.80;;;;;;;0.84;85.87;100424.75;104131;1313;22629;-69
2021/12/20 04:38:28;;;;;;;3.90;0.60;;;;;;;0.83;85.88;100427.59;104064;1310;22636;-69
2021/12/20 04:41:00;;;;;;;3.40;0.50;;;;;;;0.81;85.78;100430.98;104127;1310;22613;-70
2021/12/20 04:43:30;;;;;;;5.00;0.70;;;;;;;0.79;85.90;100434.77;104100;1309;24218;-69
2021/12/20 04:46:02;;;;;;;4.10;0.50;;;;;;;0.77;85.91;100443.28;104134;1306;22580;-70
2021/12/20 04:48:32;;;;;;;7.50;0.70;;;;;;;0.76;85.83;100447.52;104135;1307;22578;-69
2021/12/20 04:51:03;;;;;;;5.50;0.60;;;;;;;0.75;85.63;100448.02;104081;1313;22594;-70
2021/12/20 04:53:34;;;;;;;3.90;0.40;;;;;;;0.74;85.78;100442.13;104151;1310;22675;-70
2021/12/20 04:56:05;;;;;;;6.60;0.70;;;;;;;0.74;85.84;100440.95;104074;1307;22580;-69
2021/12/20 04:58:36;;;;;;;7.80;0.60;;;;;;;0.74;85.84;100443.77;104075;1310;22575;-69
2021/12/20 05:01:07;;;;;;;2.30;0.40;;;;;;;0.73;85.79;100452.50;104036;1310;25402;-70
2021/12/20 05:03:39;;;;;;;6.00;0.40;;;;;;;0.72;85.71;100448.43;104089;1311;25507;-70
2021/12/20 05:06:10;;;;;;;2.10;0.30;;;;;;;0.71;85.72;100448.83;104022;1310;22595;-72
2021/12/20 05:08:47;;;;;;;2.10;0.30;;;;;;;0.70;85.55;100451.02;103971;1313;23108;-70
2021/12/20 05:11:20;;;;;;;3.70;0.40;;;;;;;0.70;85.80;100447.73;104097;1310;25319;-73
2021/12/20 05:13:51;;;;;;;2.40;0.40;;;;;;;0.70;85.69;100457.39;104117;1310;25428;-70
2021/12/20 05:16:22;;;;;;;5.60;0.50;;;;;;;0.70;85.48;100451.20;104123;1307;24240;-70
2021/12/20 05:18:53;;;;;;;3.60;0.40;;;;;;;0.70;85.42;100453.00;104176;1313;24215;-69
2021/12/20 05:21:26;;;;;;;10.20;0.60;;;;;;;0.69;85.50;100451.98;104047;1306;22617;-68
2021/12/20 05:23:57;;;;;;;6.80;0.60;;;;;;;0.69;85.42;100470.59;103660;1311;23972;-70
2021/12/20 05:26:28;;;;;;;4.10;0.50;;;;;;;0.69;85.49;100471.38;103648;1307;22656;-70
2021/12/20 05:29:00;;;;;;;5.00;0.40;;;;;;;0.70;85.55;100478.05;103742;1306;23029;-69
2021/12/20 05:31:33;;;;;;;3.50;0.40;;;;;;;0.70;85.40;100479.29;104173;1307;22631;-70
2021/12/20 05:34:04;;;;;;;4.40;0.50;;;;;;;0.70;85.48;100490.74;104202;1307;22592;-69
2021/12/20 05:36:35;;;;;;;5.90;0.50;;;;;;;0.71;85.62;100493.41;104107;1309;22722;-70
2021/12/20 05:39:06;;;;;;;6.90;0.60;;;;;;;0.71;85.34;100498.05;104187;1307;23609;-70
2021/12/20 05:41:37;;;;;;;3.50;0.40;;;;;;;0.71;85.40;100495.21;104228;1313;23359;-71
2021/12/20 05:44:08;;;;;;;6.80;0.50;;;;;;;0.71;85.55;100493.42;104337;1310;22652;-73
2021/12/20 05:46:39;;;;;;;6.20;0.40;;;;;;;0.72;85.55;100500.15;104238;1309;22574;-69
2021/12/20 05:49:10;;;;;;;4.30;0.50;;;;;;;0.73;85.39;100505.17;104240;1307;22571;-71
2021/12/20 05:51:41;;;;;;;8.90;0.60;;;;;;;0.74;85.47;100512.40;104256;1310;22578;-71
2021/12/20 05:54:13;;;;;;;6.80;0.70;;;;;;;0.73;85.28;100507.69;104241;1310;24231;-72
2021/12/20 05:56:43;;;;;;;6.40;0.40;;;;;;;0.74;85.35;100513.35;104300;1313;22672;-72
2021/12/20 05:59:14;;;;;;;9.50;0.50;;;;;;;0.74;85.26;100508.55;104370;1310;22709;-72
2021/12/20 06:01:45;;;;;;;6.40;0.60;;;;;;;0.75;85.21;100509.64;104381;1306;25526;-72
2021/12/20 06:04:16;;;;;;;3.10;0.40;;;;;;;0.76;85.28;100504.45;104364;1310;22593;-72
2021/12/20 06:06:50;;;;;;;3.20;0.50;;;;;;;0.77;85.27;100510.48;104342;1310;22931;-72
2021/12/20 06:09:21;;;;;;;9.80;1.10;;;;;;;0.78;85.16;100514.32;104360;1310;25251;-72
2021/12/20 06:11:54;;;;;;;2.60;0.60;;;;;;;0.79;85.20;100515.09;104413;1313;25383;-72
2021/12/20 06:14:25;;;;;;;3.70;0.50;;;;;;;0.79;85.28;100517.61;104683;1310;25319;-71
2021/12/20 06:16:57;;;;;;;8.30;1.00;;;;;;;0.80;85.15;100518.16;104329;1310;22589;-72
2021/12/20 06:19:29;;;;;;;10.40;1.60;;;;;;;0.80;85.06;100520.51;104465;1310;22673;-71
2021/12/20 06:22:01;;;;;;;6.10;0.90;;;;;;;0.80;85.02;100519.16;104345;1310;22584;-72
2021/12/20 06:24:34;;;;;;;5.00;0.60;;;;;;;0.80;85.09;100520.83;104443;1306;23081;-73
2021/12/20 06:27:06;;;;;;;6.00;0.80;;;;;;;0.80;85.13;100522.95;104441;1310;22613;-71
2021/12/20 06:29:37;;;;;;;4.50;0.60;;;;;;;0.80;85.00;100522.71;104218;1313;22568;-72
2021/12/20 06:32:09;;;;;;;3.60;0.60;;;;;;;0.79;85.02;100526.88;104469;1309;22518;-72
2021/12/20 06:34:40;;;;;;;6.20;0.50;;;;;;;0.78;84.91;100529.87;104549;1310;22549;-72
2021/12/20 06:37:12;;;;;;;4.00;0.50;;;;;;;0.78;84.80;100536.15;104510;1307;22617;-73
2021/12/20 06:39:43;;;;;;;5.10;1.00;;;;;;;0.78;84.96;100545.02;104375;1310;25388;-72
2021/12/20 06:42:14;;;;;;;3.30;0.50;;;;;;;0.79;84.75;100550.66;104518;1310;25281;-71
2021/12/20 06:44:45;;;;;;;5.80;0.60;;;;;;;0.80;84.92;100558.20;104490;1310;24244;-72
2021/12/20 06:47:17;;;;;;;6.90;0.80;;;;;;;0.81;84.90;100560.06;104477;1306;23117;-70
2021/12/20 06:49:48;;;;;;;5.40;0.50;;;;;;;0.81;84.59;100564.70;104397;1310;24007;-72
2021/12/20 06:52:19;;;;;;;4.10;0.60;;;;;;;0.81;84.66;100565.02;104401;1306;22580;-72
2021/12/20 06:54:51;;;;;;;3.60;0.50;;;;;;;0.81;84.18;100575.70;104336;1307;22518;-72
2021/12/20 06:57:22;;;;;;;8.80;0.70;;;;;;;0.82;84.42;100576.09;104527;1310;22628;-72
2021/12/20 06:59:53;;;;;;;6.70;0.50;;;;;;;0.83;84.59;100575.30;104330;1312;22593;-73
2021/12/20 07:02:24;;;;;;;7.70;0.70;;;;;;;0.84;84.61;100578.35;104370;1310;22577;-73
2021/12/20 07:04:59;;;;;;;6.20;0.60;;;;;;;0.85;84.47;100580.08;104754;1310;22596;-73
2021/12/20 07:07:31;;;;;;;4.80;0.60;;;;;;;0.85;84.58;100581.33;104720;1306;22941;-72
2021/12/20 07:10:04;;;;;;;4.70;0.90;;;;;;;0.85;84.52;100578.80;104385;1306;25012;-72
2021/12/20 07:12:37;;;;;;;3.70;0.60;;;;;;;0.85;84.44;100582.65;104323;1310;23029;-74
2021/12/20 07:15:38;;;;;;;11.00;0.60;;;;;;;0.86;84.43;100581.86;104360;1310;23053;-73
2021/12/20 07:18:27;;;;;;;4.70;0.40;;;;;;;0.87;84.53;100587.12;104959;1307;23355;-72
2021/12/20 07:20:58;;;;;;;8.00;1.10;;;;;;;0.87;84.40;100588.67;104131;1307;25543;-72
2021/12/20 07:23:29;;;;;;;6.20;0.70;;;;;;;0.88;84.53;100584.75;104084;1310;23178;-73
2021/12/20 07:26:00;;;;;;;3.40;0.50;;;;;;;0.88;84.44;100588.29;104163;1307;24251;-65
2021/12/20 07:28:31;;;;;;;7.10;0.90;;;;;;;0.88;84.57;100590.95;103673;1307;22576;-64
2021/12/20 07:31:03;;;;;;;4.00;0.70;;;;;;;0.89;84.55;100595.52;103669;1307;26580;-65
2021/12/20 07:33:34;;;;;;;5.90;0.60;;;;;;;0.89;84.47;100599.91;103645;1310;22568;-64
2021/12/20 07:36:05;;;;;;;6.20;0.60;;;;;;;0.89;84.51;100607.13;103945;1310;24208;-64
2021/12/20 07:38:36;;;;;;;6.90;0.70;;;;;;;0.89;84.60;100610.34;103574;1313;22757;-65
2021/12/20 07:41:07;;;;;;;4.80;0.50;;;;;;;0.88;84.52;100610.98;103563;1310;22718;-65
2021/12/20 07:43:39;;;;;;;7.90;0.70;;;;;;;0.88;84.54;100614.98;103599;1307;22647;-65
2021/12/20 07:46:10;;;;;;;7.20;0.40;;;;;;;0.87;84.61;100611.55;103650;1306;24256;-65
2021/12/20 07:48:41;;;;;;;8.20;0.70;;;;;;;0.86;84.63;100609.50;103602;1310;23144;-64
2021/12/20 07:51:13;;;;;;;10.80;1.10;;;;;;;0.86;84.68;100608.64;103520;1310;24140;-65
2021/12/20 07:53:45;;;;;;;5.00;1.00;;;;;;;0.86;84.63;100607.15;103579;1310;22911;-65
2021/12/20 07:56:17;;;;;;;2.40;0.50;;;;;;;0.87;84.66;100610.52;103639;1307;25421;-65
2021/12/20 07:58:49;;;;;;;5.60;0.70;;;;;;;0.87;84.58;100607.86;103607;1310;25607;-65
2021/12/20 08:01:21;;;;;;;3.90;0.70;;;;;;;0.87;84.48;100611.92;103620;1307;23055;-65
2021/12/20 08:03:53;;;;;;;5.40;0.70;;;;;;;0.88;84.60;100611.85;103462;1305;22713;-65
2021/12/20 08:06:24;;;;;;;5.20;0.60;;;;;;;0.89;84.72;100603.98;103952;1310;24340;-65
2021/12/20 08:09:01;;;;;;;6.70;0.70;;;;;;;0.89;84.57;100610.50;103594;1311;23503;-65
2021/12/20 08:11:33;;;;;;;7.20;0.90;;;;;;;0.90;84.57;100616.86;103822;1313;25265;-65
2021/12/20 08:14:05;;;;;;;8.90;0.80;;;;;;;0.89;84.75;100618.27;103569;1307;22577;-66
2021/12/20 08:16:37;;;;;;;8.40;0.80;;;;;;;0.89;84.63;100621.10;103666;1306;22571;-66
2021/12/20 08:19:08;;;;;;;4.50;0.70;;;;;;;0.88;84.53;100619.77;103532;1306;22577;-65
2021/12/20 08:21:40;;;;;;;7.30;1.10;;;;;;;0.88;84.62;100627.46;103602;1310;24287;-65
2021/12/20 08:24:11;;;;;;;7.90;1.20;;;;;;;0.88;84.68;100627.23;103536;1313;22629;-65
2021/12/20 08:26:43;;;;;;;6.70;1.20;;;;;;;0.88;84.66;100628.58;103968;1310;24387;-65
2021/12/20 08:29:15;;;;;;;6.70;1.70;;;;;;;0.87;84.61;100634.71;103575;1312;24378;-65
2021/12/20 08:31:47;;;;;;;8.80;1.60;;;;;;;0.86;84.73;100639.98;103509;1307;22549;-65
2021/12/20 08:34:19;;;;;;;7.60;1.20;;;;;;;0.85;84.72;100640.77;103831;1310;24235;-64
2021/12/20 08:36:52;;;;;;;13.10;2.20;;;;;;;0.85;84.71;100636.61;103697;1306;26013;-67
2021/12/20 08:39:28;;;;;;;7.10;1.10;;;;;;;0.85;84.71;100633.70;103953;1307;22643;-66
2021/12/20 08:42:00;;;;;;;7.10;1.20;;;;;;;0.84;84.76;100635.67;103774;1311;24208;-66
2021/12/20 08:44:33;;;;;;;8.80;0.90;;;;;;;0.84;84.67;100634.72;103920;1306;23146;-66
2021/12/20 08:47:05;;;;;;;10.20;2.10;;;;;;;0.85;84.78;100638.73;103813;1307;22574;-66
2021/12/20 08:49:37;;;;;;;7.40;0.90;;;;;;;0.85;84.75;100642.89;103877;1307;24228;-67
2021/12/20 08:52:10;;;;;;;5.20;0.80;;;;;;;0.85;84.80;100643.20;103893;1310;24990;-65
2021/12/20 08:54:43;;;;;;;6.90;1.00;;;;;;;0.85;84.79;100646.56;103662;1310;22631;-66
2021/12/20 08:57:14;;;;;;;8.40;1.40;;;;;;;0.85;84.75;100646.73;103713;1310;22709;-65
2021/12/20 08:59:45;;;;;;;7.00;1.10;;;;;;;0.86;84.95;100646.96;103689;1310;24398;-65
2021/12/20 09:02:17;;;;;;;5.50;0.90;;;;;;;0.87;84.83;100648.60;103794;1310;25463;-66
2021/12/20 09:04:50;;;;;;;8.40;0.80;;;;;;;0.86;84.84;100647.59;104039;1306;25328;-66
2021/12/20 09:07:21;;;;;;;9.30;1.30;;;;;;;0.87;84.89;100651.13;103843;1306;22564;-66
2021/12/20 09:09:53;;;;;;;5.40;0.90;;;;;;;0.86;84.83;100654.65;103915;1306;25435;-65
2021/12/20 09:12:24;;;;;;;8.00;1.20;;;;;;;0.86;84.78;100653.64;103847;1307;22581;-64
2021/12/20 09:15:07;;;;;;;8.50;0.90;;;;;;;0.85;84.93;100651.99;103832;1307;22623;-65
2021/12/20 09:17:39;;;;;;;6.40;1.00;;;;;;;0.85;84.87;100655.05;103818;1310;22981;-65
2021/12/20 09:20:17;;;;;;;7.20;1.00;;;;;;;0.85;84.98;100658.27;103765;1307;25332;-64
2021/12/20 09:22:53;;;;;;;5.70;0.80;;;;;;;0.86;84.91;100658.58;103444;1307;25489;-65
2021/12/20 09:25:27;;;;;;;7.60;1.00;;;;;;;0.85;84.91;100658.27;103389;1310;24438;-65
2021/12/20 09:27:59;;;;;;;6.20;1.10;;;;;;;0.85;84.86;100666.37;103472;1307;25361;-65
2021/12/20 09:30:32;;;;;;;13.20;1.50;;;;;;;0.85;84.98;100667.70;103416;1310;22785;-65
2021/12/20 09:33:24;;;;;;;5.60;1.00;;;;;;;0.84;84.99;100667.23;103618;1310;22575;-65
2021/12/20 09:35:57;;;;;;;7.70;1.00;;;;;;;0.84;85.00;100665.04;103497;1313;23030;-65
2021/12/20 09:38:31;;;;;;;6.60;1.70;;;;;;;0.85;85.20;100662.30;103842;1310;22590;-65
2021/12/20 09:41:15;;;;;;;8.00;1.00;;;;;;;0.86;85.09;100669.34;103606;1307;24246;-66
2021/12/20 09:43:51;;;;;;;10.10;1.20;;;;;;;0.85;85.10;100667.39;103544;1307;24404;-66
2021/12/20 09:46:24;;;;;;;6.70;1.40;;;;;;;0.85;85.16;100665.80;103562;1307;25243;-64
2021/12/20 09:48:57;;;;;;;9.40;1.80;;;;;;;0.87;85.08;100668.95;103778;1307;22580;-65
2021/12/20 09:51:29;;;;;;;14.80;1.50;;;;;;;0.87;85.16;100666.27;103641;1312;25604;-66
2021/12/20 09:54:00;;;;;;;10.40;1.80;;;;;;;0.88;85.16;100668.86;103497;1307;24954;-65
2021/12/20 09:56:32;;;;;;;12.40;1.20;;;;;;;0.88;85.09;100668.14;103265;1312;24749;-65
2021/12/20 09:59:03;;;;;;;16.40;2.20;;;;;;;0.88;85.11;100665.80;103387;1307;22545;-64
2021/12/20 10:01:35;;;;;;;14.60;2.10;;;;;;;0.88;85.13;100670.59;103545;1310;24256;-65
2021/12/20 10:04:07;;;;;;;7.40;1.10;;;;;;;0.88;85.21;100671.30;103674;1307;25097;-65
2021/12/20 10:06:39;;;;;;;6.60;1.20;;;;;;;0.87;85.19;100666.42;104134;1309;22671;-65
2021/12/20 10:09:13;;;;;;;11.80;1.80;;;;;;;0.88;85.27;100667.20;103655;1306;25267;-65
2021/12/20 10:11:45;;;;;;;7.20;1.30;;;;;;;0.88;85.12;100667.05;103665;1313;25221;-65
2021/12/20 10:14:19;;;;;;;9.80;1.30;;;;;;;0.88;85.19;100662.97;103492;1306;22584;-64
2021/12/20 10:17:05;;;;;;;10.90;3.10;;;;;;;0.88;85.26;100668.61;103760;1307;24162;-65
2021/12/20 10:19:37;;;;;;;16.00;2.10;;;;;;;0.89;85.29;100664.70;103567;1307;25309;-65
2021/12/20 10:22:25;;;;;;;13.90;1.40;;;;;;;0.89;85.33;100657.46;103626;1307;25582;-65
2021/12/20 10:24:58;;;;;;;7.10;1.50;;;;;;;0.91;85.37;100650.61;103533;1306;327353;-66
2021/12/20 10:27:35;;;;;;;7.60;1.10;;;;;;;0.94;85.36;100649.27;103589;1310;25231;-65
2021/12/20 10:30:29;;;;;;;7.10;1.60;;;;;;;0.97;85.42;100652.39;103637;1310;24231;-65
2021/12/20 10:33:02;;;;;;;8.60;1.80;;;;;;;0.98;85.31;100651.03;103520;1313;22723;-64
2021/12/20 10:35:40;;;;;;;9.10;1.20;;;;;;;1.00;85.28;100648.90;103602;1312;22585;-64
2021/12/20 10:38:25;;;;;;;14.50;1.90;;;;;;;1.02;85.34;100659.81;103470;1307;22655;-64
2021/12/20 10:40:59;;;;;;;7.10;1.50;;;;;;;1.03;85.37;100660.43;103528;1307;25354;-64
2021/12/20 10:43:35;;;;;;;9.50;1.80;;;;;;;1.05;85.39;100661.44;103612;1309;24224;-65
2021/12/20 10:46:16;;;;;;;6.60;1.10;;;;;;;1.05;85.43;100660.89;103855;1307;22691;-65
2021/12/20 10:48:51;;;;;;;9.30;1.50;;;;;;;1.05;85.36;100657.20;103703;1311;22593;-65
2021/12/20 10:51:25;;;;;;;9.30;1.40;;;;;;;1.07;85.40;100655.05;103794;1307;24192;-65
2021/12/20 10:54:01;;;;;;;6.70;1.10;;;;;;;1.11;85.42;100655.19;103946;1306;22577;-65
2021/12/20 10:56:40;;;;;;;7.10;1.00;;;;;;;1.14;85.50;100656.73;103935;1307;24199;-65
2021/12/20 10:59:14;;;;;;;5.50;1.10;;;;;;;1.18;85.50;100660.08;103963;1310;22761;-66
2021/12/20 11:02:57;;;;;;;9.30;1.50;;;;;;;1.18;85.33;100663.77;103989;1306;25666;-66
2021/12/20 11:05:02;;;;;;;9.20;1.70;;;;;;;1.20;85.41;100665.55;103793;1307;24217;-66
2021/12/20 11:10:26;;;;;;;11.10;1.40;;;;;;;1.23;85.30;100662.70;103846;1307;22677;-66
2021/12/20 11:12:58;;;;;;;11.10;1.30;;;;;;;1.26;85.32;100657.88;103870;1306;25751;-66
2021/12/20 11:15:31;;;;;;;10.70;1.30;;;;;;;1.30;85.00;100657.37;103730;1307;22580;-65
2021/12/20 11:18:16;;;;;;;4.00;0.90;;;;;;;1.33;84.67;100664.19;103842;1312;24227;-66
2021/12/20 11:20:48;;;;;;;6.10;1.10;;;;;;;1.36;84.88;100662.66;103898;1313;24218;-66
2021/12/20 11:23:29;;;;;;;10.50;1.10;;;;;;;1.38;84.72;100658.56;103893;1307;23946;-65
2021/12/20 11:26:00;;;;;;;7.20;1.00;;;;;;;1.42;84.62;100659.16;103801;1306;25386;-66
2021/12/20 11:28:31;;;;;;;7.70;1.10;;;;;;;1.45;84.39;100668.88;103819;1307;25265;-66
2021/12/20 11:31:03;;;;;;;4.80;0.90;;;;;;;1.46;84.61;100666.90;103693;1307;25470;-66
2021/12/20 11:33:35;;;;;;;6.30;1.40;;;;;;;1.47;84.63;100669.40;103882;1307;22563;-66
2021/12/20 11:36:07;;;;;;;6.50;1.30;;;;;;;1.50;84.28;100670.40;103791;1311;24291;-65
2021/12/20 11:38:39;;;;;;;8.20;1.40;;;;;;;1.51;84.56;100667.80;103619;1313;24332;-66
2021/12/20 11:41:11;;;;;;;8.30;0.90;;;;;;;1.54;84.54;100669.35;103608;1309;24467;-65
2021/12/20 11:43:42;;;;;;;6.80;1.10;;;;;;;1.54;84.38;100672.24;103454;1306;22602;-65
2021/12/20 11:46:15;;;;;;;7.20;1.00;;;;;;;1.57;84.51;100671.98;103423;1307;25528;-64
2021/12/20 11:48:46;;;;;;;11.10;1.10;;;;;;;1.59;84.44;100669.45;103513;1306;22539;-65
2021/12/20 11:51:17;;;;;;;8.20;1.10;;;;;;;1.62;84.21;100670.36;103502;1306;25328;-66
2021/12/20 11:53:49;;;;;;;7.60;1.00;;;;;;;1.64;84.37;100671.45;103661;1312;22574;-66
2021/12/20 11:56:37;;;;;;;8.80;1.00;;;;;;;1.62;83.89;100666.43;104045;1311;24355;-65
2021/12/20 11:59:09;;;;;;;9.60;1.00;;;;;;;1.63;83.91;100668.86;103681;1310;22555;-65
2021/12/20 12:01:44;;;;;;;6.70;0.90;;;;;;;1.62;83.98;100665.17;103700;1306;22542;-65